• Join FlightAware (Why Join?)
  • Login
  • US Flag 
03:04PM EDT


 

Airport Tracker/Info


-or-


 

Live Flight TrackerFlight Track Log ✈ SWA714 ✈ 09-Apr-2013 ✈ KDAL - KLBB

Flight Track Log - Related Links

Times and Time Zones

All times are in EDT time to prevent confusion due to time zone crossing. See the SWA714 flight status page for this flight to view local times or setup timezone preferences in your user account.

Time Position Orientation Groundspeed Altitude Reporting Facility
EDT Latitude Longitude Course Direction KTS MPH feet Rate Location/Type
05:46PM 32.8000 -96.8000 151° Southeast 200 230 3,400  Level Dallas / Fort Worth TRACON
05:47PM 32.7500 -96.7667 151° Southeast 215 247 6,200 1,740 Climbing Dallas / Fort Worth TRACON
05:48PM 32.6833 -96.7833 192° South 256 295 7,000 1,800 Climbing Dallas / Fort Worth TRACON
05:50PM 32.6172 -96.9028 237° Southwest 260 299 11,500 2,280 Climbing Fort Worth Center
05:51PM 32.6553 -97.0111 293° West 313 360 13,700 2,340 Climbing Fort Worth Center
05:52PM 32.6994 -97.1097 298° West 352 405 16,200 2,940 Climbing Fort Worth Center
05:53PM 32.7539 -97.2306 298° West 373 429 19,600 3,060 Climbing Fort Worth Center
05:54PM 32.8019 -97.3369 298° West 380 437 22,400 2,280 Climbing Fort Worth Center
05:55PM 32.8458 -97.4406 297° West 381 438 24,200 1,680 Climbing Fort Worth Center
05:56PM 32.9042 -97.5644 299° West 386 444 25,800 1,560 Climbing Fort Worth Center
05:57PM 32.9583 -97.6858 298° West 396 456 27,400 1,680 Climbing Fort Worth Center
05:58PM 32.9933 -97.8147 288° West 413 475 29,200 2,040 Climbing Fort Worth Center
05:59PM 33.0158 -97.9461 282° West 413 475 31,500 2,280 Climbing Fort Worth Center
06:00PM 33.0342 -98.0700 280° West 401 461 33,800 1,200 Climbing Fort Worth Center
06:01PM 33.0542 -98.1942 281° West 389 448 34,000 60 Climbing Fort Worth Center
06:02PM 33.0742 -98.3258 280° West 394 453 34,000  Level Fort Worth Center
06:03PM 33.0900 -98.4450 279° West 399 459 34,000  Level Fort Worth Center
06:04PM 33.1078 -98.5692 280° West 394 453 34,000  Level Fort Worth Center
06:05PM 33.1294 -98.6983 281° West 394 453 34,000 900 Level Fort Worth Center
06:06PM 33.1469 -98.8228 280° West 388 447 35,900 960 Climbing Fort Worth Center
06:07PM 33.1664 -98.9447 281° West 383 441 36,000  Climbing Fort Worth Center
06:08PM 33.1856 -99.0714 280° West 383 441 36,000  Level Fort Worth Center
06:09PM 33.2025 -99.1961 279° West 383 441 36,000  Level Fort Worth Center
06:10PM 33.2217 -99.3231 280° West 390 449 36,000  Level Fort Worth Center
06:11PM 33.2383 -99.4500 279° West 390 449 36,000  Level Fort Worth Center
06:12PM 33.2656 -99.5775 284° West 390 449 36,000  Level Fort Worth Center
06:13PM 33.3367 -99.6886 307° West 390 449 36,000 -360 Level Fort Worth Center
06:14PM 33.4097 -99.7925 310° West 408 470 35,300 -840 Descending Fort Worth Center
06:15PM 33.4831 -99.8964 310° West 413 475 34,400 -1,200 Descending Fort Worth Center
06:16PM 33.5267 -100.0050 296° West 401 461 32,900 -1,980 Descending Fort Worth Center
06:17PM 33.5367 -100.1172 276° West 351 404 30,500 -2,100 Descending Fort Worth Center
06:18PM 33.5483 -100.2497 276° West 361 415 28,800 -1,320 Descending Fort Worth Center
06:19PM 33.5603 -100.3747 277° West 372 428 27,900 -960 Descending Fort Worth Center
06:20PM 33.5697 -100.4972 275° West 372 428 26,900 -1,020 Descending Fort Worth Center
06:21PM 33.5833 -100.6200 278° West 372 428 25,900 -1,020 Descending Fort Worth Center
06:22PM 33.5969 -100.7375 278° West 372 428 24,900 -1,020 Descending Fort Worth Center
06:22PM 33.6028 -100.8300 274° West 369 425 24,100 -1,020 Descending Fort Worth Center
06:24PM 33.6219 -100.9731 279° West 367 422 22,900 -1,020 Descending Fort Worth Center
06:25PM 33.6211 -101.0728 269° West 351 404 21,900 -2,160 Descending Fort Worth Center
06:26PM 33.5928 -101.1836 253° West 323 372 18,600 -3,240 Descending Fort Worth Center
06:27PM 33.5708 -101.2800 255° West 323 372 15,500 -3,120 Descending Fort Worth Center
06:28PM 33.5403 -101.3958 252° West 328 377 12,400 -2,460 Descending Fort Worth Center
06:29PM 33.5097 -101.5017 251° West 333 383 10,600 -1,500 Descending Fort Worth Center
06:30PM 33.4853 -101.6100 255° West 287 330 9,200 -1,500 Descending Fort Worth Center
06:31PM 33.4694 -101.7039 259° West 278 320 7,400 -1,680 Descending Fort Worth Center
06:32PM 33.4608 -101.7731 262° West 291 335 6,200 -1,320 Descending Fort Worth Center
06:33PM 33.5108 -101.8328 315° West 222 255 4,800 -720 Descending Fort Worth Center
06:34PM 33.5486 -101.8297 North 186 214 4,800 -360 Level Fort Worth Center
06:35PM 33.5903 -101.8319 357° North 153 176 4,200 -600 Descending Fort Worth Center
06:36PM 33.6239 -101.8286 North 130 150 3,700 -540 Descending Fort Worth Center
06:37PM 33.6656 -101.8306 358° North 125 144 3,200 -540 Descending Fort Worth Center